»·PEaware :: N991MZ KLHM-KSAC

N991MZ :: KLHM-KSAC

FLIGHT INFORMATION

Flight Status: Arrived
Operator: Privately registered:
United States
More flights under this callsign
Pilot: Greg M. (20274)
Aircraft: Unknown
(/G)
More flights by this aircraft type
Origin: KLHM Lincoln Regl/Harder
United States
Destination: KSAC Sacramento Executive
United States
More flights between these airports :: More routes between these airports
Route: ROZZY SAC
File this flight plan on PilotEdge
Remarks:
Altitude:
(Current/Filed)
3,000ft
Speed:
(Current/Filed)
145kts
Departed: 03-Oct-18 04:58 PM
Arrived: 03-Oct-18 05:54 PM
Distance/Time
Traveled:
25nm/0:56
Distance/Time
To Go:
Arrived

Flight Plot

Page will automatically refresh every two minutes.

Flight plan parsing failed; only flown route is shown


Map Options




Map Legend


Flown Route
Filed Route
Departure Airport
Arrival Airport
Navaid (VOR, NDB)
Fix

Horizontal Profiles

Position Reports

Time Latitude Longitude Heading Altitude Ground
Speed
03-Oct-18 16:55 38.917559 -121.352613 164 119ft 0kts
03-Oct-18 16:56 38.917559 -121.352613 164 119ft 0kts
03-Oct-18 16:57 38.917559 -121.352613 164 119ft 0kts
03-Oct-18 16:58 38.917559 -121.352613 164 119ft 0kts
03-Oct-18 16:59 38.917363 -121.352710 232 119ft 11kts
03-Oct-18 17:00 38.906094 -121.350369 165 366ft 107kts
03-Oct-18 17:01 38.876657 -121.331897 152 1735ft 127kts
03-Oct-18 17:02 38.845066 -121.311400 155 3019ft 141kts
03-Oct-18 17:03 38.805790 -121.287138 155 2997ft 159kts
03-Oct-18 17:04 38.767781 -121.263679 156 3002ft 149kts
03-Oct-18 17:05 38.731584 -121.265148 218 2995ft 146kts
03-Oct-18 17:06 38.695718 -121.286260 194 2993ft 144kts
03-Oct-18 17:07 38.656797 -121.298755 194 2992ft 144kts
03-Oct-18 17:08 38.617800 -121.311021 194 2994ft 144kts
03-Oct-18 17:09 38.579156 -121.322876 193 2996ft 144kts
03-Oct-18 17:10 38.537431 -121.337574 213 2998ft 164kts
03-Oct-18 17:11 38.499091 -121.369651 213 3006ft 165kts
03-Oct-18 17:12 38.460603 -121.401428 213 3015ft 165kts
03-Oct-18 17:13 38.421827 -121.432882 213 3018ft 165kts
03-Oct-18 17:14 38.383613 -121.463992 212 3026ft 164kts
03-Oct-18 17:15 38.354307 -121.504644 279 2987ft 177kts
03-Oct-18 17:16 38.382254 -121.555551 303 2759ft 172kts
03-Oct-18 17:17 38.415998 -121.572852 28 1867ft 136kts
03-Oct-18 17:18 38.443348 -121.551483 30 1502ft 108kts
03-Oct-18 17:19 38.474707 -121.526077 34 779ft 130kts
03-Oct-18 17:20 38.496527 -121.500681 63 614ft 92kts
03-Oct-18 17:21 38.514992 -121.478260 27 841ft 101kts
03-Oct-18 17:22 38.524350 -121.491144 210 941ft 88kts
03-Oct-18 17:23 38.508819 -121.513346 232 938ft 90kts
03-Oct-18 17:24 38.492106 -121.524583 126 1090ft 87kts
03-Oct-18 17:25 38.508705 -121.501915 35 1172ft 119kts
03-Oct-18 17:26 38.538444 -121.475815 35 2213ft 131kts
03-Oct-18 17:27 38.569132 -121.448705 35 3029ft 157kts
03-Oct-18 17:28 38.606153 -121.409045 44 3040ft 185kts
03-Oct-18 17:29 38.644810 -121.366026 45 3096ft 188kts
03-Oct-18 17:30 38.683407 -121.322954 46 3024ft 172kts
03-Oct-18 17:31 38.716130 -121.286789 49 3018ft 143kts
03-Oct-18 17:32 38.745599 -121.253686 49 3031ft 144kts
03-Oct-18 17:33 38.738287 -121.222698 183 3017ft 117kts
03-Oct-18 17:34 38.710718 -121.247455 212 3029ft 124kts
03-Oct-18 17:35 38.683502 -121.274748 212 3020ft 124kts
03-Oct-18 17:36 38.687372 -121.311480 350 3016ft 158kts
03-Oct-18 17:37 38.711499 -121.278589 114 3020ft 124kts
03-Oct-18 17:38 38.681959 -121.276784 191 3023ft 120kts
03-Oct-18 17:39 38.649740 -121.288439 193 3027ft 121kts
03-Oct-18 17:40 38.614920 -121.300361 192 3029ft 138kts
03-Oct-18 17:41 38.576929 -121.312615 192 3015ft 144kts
03-Oct-18 17:42 38.537686 -121.324400 192 3001ft 145kts
03-Oct-18 17:43 38.501359 -121.345507 212 3002ft 147kts
03-Oct-18 17:44 38.467828 -121.375296 212 3005ft 148kts
03-Oct-18 17:45 38.434091 -121.404883 212 3005ft 149kts
03-Oct-18 17:46 38.399822 -121.434713 212 2998ft 150kts
03-Oct-18 17:47 38.365214 -121.464271 212 2999ft 151kts
03-Oct-18 17:48 38.330274 -121.493764 213 2992ft 151kts
03-Oct-18 17:49 38.340102 -121.538185 304 2800ft 143kts
03-Oct-18 17:50 38.362889 -121.572585 332 2048ft 124kts
03-Oct-18 17:51 38.396608 -121.571365 1 1485ft 116kts
03-Oct-18 17:52 38.424216 -121.564346 30 1483ft 98kts
03-Oct-18 17:53 38.450443 -121.545777 30 1363ft 131kts
03-Oct-18 17:54 38.481504 -121.520516 32 614ft 115kts
03-Oct-18 17:55 38.505225 -121.500722 35 62ft 93kts
03-Oct-18 17:56 38.517776 -121.490298 39 22ft 23kts
03-Oct-18 17:57 38.519203 -121.490635 267 24ft 9kts
03-Oct-18 17:58 38.516011 -121.493426 212 22ft 20kts
03-Oct-18 17:59 38.513588 -121.497329 1 20ft 0kts
03-Oct-18 18:00 38.513588 -121.497329 1 20ft 0kts
03-Oct-18 18:01 38.513588 -121.497329 1 20ft 0kts
03-Oct-18 18:02 38.513588 -121.497329 1 20ft 0kts
03-Oct-18 18:03 38.513588 -121.497329 1 20ft 0kts
03-Oct-18 18:04 38.513588 -121.497329 1 20ft 0kts
03-Oct-18 18:05 38.513588 -121.497329 1 20ft 0kts
03-Oct-18 18:06 38.513588 -121.497329 1 20ft 0kts
03-Oct-18 18:07 38.513588 -121.497329 1 20ft 0kts
03-Oct-18 18:08 38.513588 -121.497329 1 20ft 0kts
03-Oct-18 18:09 38.513588 -121.497329 1 20ft 0kts
03-Oct-18 18:10 38.513588 -121.497329 1 20ft 0kts
03-Oct-18 18:11 38.513588 -121.497329 1 20ft 0kts

Navigation Log

Ident Type
Flight plan parsing failed, navigation log unavailable